Yuma, AZ

12:15 AM MST on October 22, 2014 (GMT -0700)
Caballero Park | Change Station
CLOSE
Current Station
Personal Weather Station
Location: Yuma, AZ
Elevation: 200 ft
Nearby Weather Stations

Elev 200 ft 32.67 °N, 114.63 °W | Updated 13 minutes ago

Clear
Clear
74.7 °F
Feels Like 77 °F
N
1.1
Wind Variable Wind from SE

Today
High -- | Low -- °F
--% Chance of Precip.
Yesterday
High -- | Low -- °F
Precip. -- in
6:48 AM 5:57 PM
Waning Crescent, 3% visible
Pressure 29.80 in
Visibility 10.0 miles
Clouds Few 20000 ft
Heat Index 77 °F
Dew Point 62 °F
Humidity 66%
Rainfall 0.00 in
Snow Depth Not available.
UV 0 out of 12
Pollen 6.80 out of 12
Air Quality Not available.
Flu Activity No Activity
METAR KNYL 220657Z 00000KT 10SM FEW200 26/16 A2981 RMK AO2 SLP090 T02560156 403440217

More Conditions Fewer Conditions

Pressure 29.80 in
Visibility 10.0 miles
Clouds Few 20000 ft
Heat Index 77 °F
Dew Point 62 °F
Humidity 66%
Rainfall 0.00 in
Snow Depth Not available.
UV 0 out of 12
Pollen 6.80 out of 12
Air Quality Not available.
Flu Activity No Activity
METAR KNYL 220657Z 00000KT 10SM FEW200 26/16 A2981 RMK AO2 SLP090 T02560156 403440217

More Conditions Fewer Conditions

10-Day Weather Forecast

Almanac

Astronomy

Oct. 22, 2014 Rise Set
Actual Time 6:48 AM MST 5:57 PM MST
Civil Twilight 6:22 AM MST 6:22 PM MST
Nautical Twilight 5:54 AM MST 6:51 PM MST
Astronomical Twilight 5:25 AM MST 7:19 PM MST
Moon 5:37 AM MST 5:23 PM MST
Length of Visible Light 11h 59m
Length of Day
11h 09m
Tomorrow will be 1m 53s shorter.
Waning Crescent, 3% of the Moon is Illuminated
Today
Waning Crescent
Oct 23
New
Oct 30
First Quarter
Nov 6
Full
Nov 14
Last Quarter

Community

WunderPhotos

Upload Photos

1,763,890 photos uploaded!

Nearby

Snow Depth

Station Depth Elevation
White Horse Lake 1 in 7180 ft
Baker Butte 1 in 7300 ft
Workman Creek 0 in 6900 ft
Fry 0 in 7200 ft
Happy Jack 0 in 7630 ft

Earthquake Activity

City Distance Mag. Time & Date
Delta, Mexico 39 miles 2.5 8:53 PM MST
2014-10-21
Minimum magnitude displayed is 2.5.

Coastal Water Temperatures

Place Temperature
No Stations Reporting

Nearby Weather Stations